Latest Weather Observations for Grafton AgRS

IDN60801

Issued at 5:35 pm EST Monday 22 September 2014 (issued every 30 minutes, with the page automatically refreshed every 10 minutes)

About weather observations | Map of weather stations | Latest weather observations for NSW | Other Formats
Station Details ID: 058077 Name: GRAFTON RESEARCH STN Lat: -29.62 Lon: 152.96 Height: 25.0 m
Data from the previous 72 hours. | See also: Recent months for locations in New South Wales
Date/Time
EST
Temp
°C
App
Temp
°C
Dew
Point
Rel
Hum
%
Delta-T
°C
Wind Press
QNH
hPa
Press
MSL
hPa
Rain
since 9 am
mm
Dir
 
Spd
km/h
Gust
km/h
Spd
kts
Gust
kts
22/05:30pm 17.8 15.9 11.8 68 3.3 ESE 13 20 7 11 - - 0.0
22/05:00pm 18.4 15.4 11.9 66 3.6 ESE 19 26 10 14 - - 0.0
22/04:30pm 19.3 15.8 12.3 64 3.9 SE 22 30 12 16 - - 0.0
22/04:00pm 18.7 13.6 11.8 64 3.8 SE 30 39 16 21 - - 0.0
22/03:30pm 20.3 17.2 12.3 60 4.5 ESE 20 32 11 17 - - 0.0
22/03:00pm 20.5 16.2 10.9 54 5.3 SE 24 32 13 17 - - 0.0
22/02:30pm 20.8 16.6 11.2 54 5.3 SE 24 32 13 17 - - 0.0
22/02:00pm 21.0 17.1 12.2 57 4.9 ESE 24 33 13 18 - - 0.0
22/01:30pm 20.6 17.4 11.8 57 4.9 ESE 20 28 11 15 - - 0.0
22/01:00pm 22.4 19.3 12.1 52 5.8 ESE 20 30 11 16 - - 0.0
22/12:30pm 21.6 18.0 10.7 50 6.0 ESE 20 32 11 17 - - 0.0
22/12:00pm 21.8 18.2 10.6 49 6.1 ESE 20 28 11 15 - - 0.0
22/11:30am 21.5 18.8 11.8 54 5.4 ESE 17 30 9 16 - - 0.0
22/11:00am 20.0 16.9 11.7 59 4.6 ESE 19 26 10 14 - - 0.0
22/10:30am 19.6 16.3 11.6 60 4.4 ESE 20 28 11 15 - - 0.0
22/10:00am 20.0 18.1 13.0 64 4.0 SE 15 22 8 12 - - 0.0
22/09:30am 19.2 16.6 12.0 63 4.0 SE 17 33 9 18 - - 0.0
22/09:00am 18.8 18.2 13.4 71 3.1 SSE 9 15 5 8 - - 0.0
22/08:30am 16.7 15.9 12.8 78 2.2 SSW 9 11 5 6 - - 0.0
22/08:00am 15.0 13.6 12.1 83 1.6 SW 11 13 6 7 - - 0.0
22/07:30am 14.3 13.2 11.8 85 1.3 WSW 9 11 5 6 - - 0.0
22/07:00am 13.4 12.5 11.5 88 1.0 WSW 7 11 4 6 - - 0.0
22/06:30am 12.2 10.8 10.9 92 0.7 WNW 9 11 5 6 - - 0.0
22/06:00am 11.5 10.3 10.2 92 0.7 WNW 7 9 4 5 - - 0.0
22/05:30am 11.5 10.2 9.9 90 0.8 WSW 7 9 4 5 - - 0.0
22/05:00am 11.5 10.3 10.2 92 0.7 W 7 11 4 6 - - 0.0
22/04:30am 10.9 9.6 10.0 94 0.5 WNW 7 9 4 5 - - 0.0
22/04:00am 11.1 9.4 9.9 92 0.6 WNW 9 11 5 6 - - 0.0
22/03:30am 11.3 9.9 9.7 90 0.8 WSW 7 7 4 4 - - 0.0
22/03:00am 11.4 10.1 10.0 91 0.7 W 7 9 4 5 - - 0.0
22/02:30am 11.6 10.0 10.3 92 0.7 W 9 13 5 7 - - 0.0
22/02:00am 11.5 9.4 9.9 90 0.8 W 11 11 6 6 - - 0.0
22/01:30am 12.1 10.9 10.3 89 0.9 W 7 9 4 5 - - 0.0
22/01:00am 12.1 11.0 10.7 91 0.7 WNW 7 9 4 5 - - 0.0
22/12:30am 11.9 10.2 9.8 87 1.1 WNW 9 11 5 6 - - 0.0
22/12:00am 12.9 11.9 10.3 84 1.3 SW 6 9 3 5 - - 0.0
 
Date/Time
EST
Temp
°C
App
Temp
°C
Dew
Point
Rel
Hum
%
Delta-T
°C
Wind Press
QNH
hPa
Press
MSL
hPa
Rain
since 9 am
mm
Dir
 
Spd
km/h
Gust
km/h
Spd
kts
Gust
kts
21/11:30pm 12.8 11.2 10.3 85 1.3 WSW 9 11 5 6 - - 0.0
21/11:00pm 13.3 11.8 10.7 84 1.4 WSW 9 11 5 6 - - 0.0
21/10:30pm 13.8 12.7 10.8 82 1.6 WSW 7 11 4 6 - - 0.0
21/10:00pm 14.2 13.3 11.4 83 1.5 SW 7 9 4 5 - - 0.0
21/09:30pm 14.5 14.8 10.9 79 1.9 CALM 0 0 0 0 - - 0.0
21/09:00pm 14.2 13.1 10.8 80 1.8 WSW 7 11 4 6 - - 0.0
21/08:30pm 14.5 13.2 11.3 81 1.7 W 9 11 5 6 - - 0.0
21/08:00pm 13.9 12.4 10.7 81 1.7 W 9 11 5 6 - - 0.0
21/07:30pm 14.5 13.6 10.5 77 2.1 W 6 7 3 4 - - 0.0
21/07:00pm 14.5 13.6 10.7 78 2.0 W 6 7 3 4 - - 0.0
21/06:30pm 15.0 13.9 10.8 76 2.2 SSE 7 11 4 6 - - 0.0
21/06:00pm 15.2 13.4 10.8 75 2.3 SSE 11 15 6 8 - - 0.0
21/05:30pm 16.1 13.5 10.8 71 2.8 SSE 15 20 8 11 - - 0.0
21/05:00pm 17.2 13.7 10.8 66 3.4 SE 20 28 11 15 - - 0.0
21/04:30pm 18.5 15.4 11.6 64 3.8 SE 19 24 10 13 - - 0.0
21/04:00pm 18.0 15.0 12.5 70 3.1 SE 20 30 11 16 - - 0.0
21/03:30pm 17.1 12.3 11.6 70 3.0 ESE 28 39 15 21 - - 0.0
21/03:09pm 18.1 12.3 10.7 62 4.0 SE 32 50 17 27 - - 0.0
21/03:00pm 19.8 15.5 10.8 56 4.9 SE 24 33 13 18 - - 0.0
21/02:30pm 19.7 14.9 11.5 59 4.5 ESE 28 37 15 20 - - 0.0
21/02:00pm 20.3 15.9 11.8 58 4.7 ESE 26 35 14 19 - - 0.0
21/01:30pm 20.9 15.9 11.0 53 5.4 SSE 28 32 15 17 - - 0.0
21/01:00pm 19.2 15.0 11.0 59 4.5 ESE 24 37 13 20 - - 0.0
21/12:30pm 19.9 15.9 10.6 55 5.0 ESE 22 35 12 19 - - 0.0
21/12:00pm 19.7 16.4 10.9 57 4.8 SE 19 26 10 14 - - 0.0
21/11:30am 20.1 17.0 10.2 53 5.3 SE 17 30 9 16 - - 0.0
21/11:00am 19.9 19.1 11.7 59 4.5 SSE 7 11 4 6 - - 0.0
21/10:30am 18.9 17.2 9.7 55 4.9 SSE 9 17 5 9 - - 0.0
21/10:00am 18.8 17.7 10.6 59 4.4 SSW 7 15 4 8 - - 0.0
21/09:30am 18.1 15.9 9.5 57 4.5 SW 11 17 6 9 - - 0.0
21/09:00am 17.7 15.9 11.0 65 3.6 WSW 11 19 6 10 - - 0.2
21/08:30am 15.1 12.8 9.0 67 3.1 WSW 11 19 6 10 - - 0.2
21/08:00am 14.6 12.2 10.2 75 2.3 W 13 20 7 11 - - 0.2
21/07:30am 12.6 10.0 9.2 80 1.7 W 13 17 7 9 - - 0.2
21/07:00am 11.0 9.1 8.9 87 1.0 NW 9 15 5 8 - - 0.2
21/06:30am 10.5 8.5 8.8 89 0.8 W 9 11 5 6 - - 0.2
21/06:00am 9.8 7.7 8.2 90 0.8 WNW 9 13 5 7 - - 0.2
21/05:30am 9.6 7.4 8.0 90 0.8 W 9 13 5 7 - - 0.2
21/05:00am 9.8 7.7 8.2 90 0.8 W 9 11 5 6 - - 0.2
21/04:30am 9.6 7.8 7.9 89 0.8 W 7 9 4 5 - - 0.2
21/04:00am 9.9 8.1 8.0 88 0.9 SW 7 11 4 6 - - 0.2
21/03:30am 10.3 8.2 8.2 87 1.0 WSW 9 11 5 6 - - 0.2
21/03:00am 10.2 8.0 8.0 86 1.1 WSW 9 11 5 6 - - 0.2
21/02:30am 10.9 8.5 8.5 85 1.2 W 11 15 6 8 - - 0.2
21/02:00am 10.9 8.5 8.5 85 1.2 WNW 11 13 6 7 - - 0.2
21/01:30am 10.9 8.8 8.3 84 1.3 NW 9 11 5 6 - - 0.2
21/01:00am 11.3 8.4 8.3 82 1.5 WSW 13 17 7 9 - - 0.2
21/12:30am 11.7 8.8 8.2 79 1.7 W 13 15 7 8 - - 0.2
21/12:00am 12.2 9.3 8.3 77 1.9 WNW 13 15 7 8 - - 0.2
 
Date/Time
EST
Temp
°C
App
Temp
°C
Dew
Point
Rel
Hum
%
Delta-T
°C
Wind Press
QNH
hPa
Press
MSL
hPa
Rain
since 9 am
mm
Dir
 
Spd
km/h
Gust
km/h
Spd
kts
Gust
kts
20/11:30pm 11.8 9.0 8.6 81 1.6 WNW 13 17 7 9 - - 0.2
20/11:00pm 12.6 10.0 7.9 73 2.3 WNW 11 13 6 7 - - 0.2
20/10:30pm 12.8 10.8 8.5 75 2.1 WNW 9 11 5 6 - - 0.2
20/10:00pm 12.6 10.9 8.3 75 2.1 W 7 9 4 5 - - 0.2
20/09:30pm 13.3 11.5 7.3 67 2.9 W 6 7 3 4 - - 0.2
20/09:00pm 14.2 12.2 7.0 62 3.5 S 7 9 4 5 - - 0.2
20/08:30pm 13.8 12.0 7.3 65 3.2 WSW 6 7 3 4 - - 0.2
20/08:00pm 14.2 12.5 7.7 65 3.2 S 6 9 3 5 - - 0.2
20/07:30pm 14.3 13.6 8.7 69 2.8 SE 2 6 1 3 - - 0.2
20/07:00pm 14.8 13.2 8.1 64 3.4 SE 6 7 3 4 - - 0.2
20/06:30pm 15.4 14.5 7.9 61 3.8 ESE 2 7 1 4 - - 0.2
20/06:00pm 16.1 12.8 8.1 59 4.0 ESE 15 17 8 9 - - 0.2
20/05:30pm 16.7 13.7 7.6 55 4.6 ESE 13 17 7 9 - - 0.2
20/05:00pm 17.5 13.6 7.0 50 5.2 ESE 17 22 9 12 - - 0.2
20/04:30pm 18.6 14.7 8.6 52 5.2 E 19 26 10 14 - - 0.2
20/04:00pm 19.5 15.6 8.8 50 5.6 ESE 19 26 10 14 - - 0.2
20/03:30pm 19.9 15.8 10.0 53 5.3 SE 22 30 12 16 - - 0.2
20/03:00pm 20.6 17.1 11.0 54 5.3 ESE 20 28 11 15 - - 0.2
20/02:30pm 20.8 17.2 10.6 52 5.6 SE 20 28 11 15 - - 0.2
20/02:00pm 19.5 16.0 10.8 57 4.7 ESE 20 28 11 15 - - 0.2
20/01:30pm 20.2 15.9 10.6 54 5.2 SE 24 33 13 18 - - 0.2
20/01:00pm 20.5 18.0 8.2 45 6.4 E 11 20 6 11 - - 0.2
20/12:30pm 20.9 18.9 10.1 50 5.8 SE 11 19 6 10 - - 0.2
20/12:00pm 19.7 18.6 10.7 56 4.9 N 7 13 4 7 - - 0.2
20/11:30am 20.2 18.7 10.6 54 5.2 E 9 13 5 7 - - 0.2
20/11:00am 19.8 19.0 11.0 57 4.8 WSW 6 13 3 7 - - 0.2
20/10:30am 19.5 18.1 12.3 63 4.0 S 11 17 6 9 - - 0.0
20/10:00am 18.7 17.3 11.0 61 4.2 SSE 9 15 5 8 - - 0.0
20/09:30am 18.4 17.8 12.4 68 3.3 SSW 7 13 4 7 - - 0.0
20/09:00am 17.7 17.3 13.0 74 2.6 W 7 17 4 9 - - 16.6
20/08:30am 16.7 15.9 12.8 78 2.2 W 9 13 5 7 - - 16.6
20/08:00am 15.9 15.1 13.0 83 1.6 W 9 13 5 7 - - 16.6
20/07:30am 14.7 13.9 12.9 89 1.0 WSW 9 11 5 6 - - 16.6
20/07:00am 13.6 13.7 12.8 95 0.4 WNW 4 7 2 4 - - 16.6
20/06:30am 12.2 11.5 11.9 98 0.2 WSW 7 13 4 7 - - 16.6
20/06:00am 11.5 9.7 11.0 97 0.3 W 11 15 6 8 - - 16.6
20/05:30am 11.8 10.9 11.3 97 0.3 WNW 7 9 4 5 - - 16.6
20/05:00am 12.0 10.8 11.5 97 0.3 NNW 9 11 5 6 - - 16.6
20/04:30am 11.9 10.6 11.3 96 0.3 WNW 9 11 5 6 - - 16.6
20/04:00am 11.9 10.9 11.0 94 0.5 W 7 9 4 5 - - 16.6
20/03:30am 12.1 10.8 11.3 95 0.4 W 9 11 5 6 - - 16.6
20/03:00am 12.6 11.8 11.8 95 0.4 WNW 7 9 4 5 - - 16.6
20/02:30am 12.8 12.3 12.0 95 0.4 W 6 7 3 4 - - 16.6
20/02:00am 12.8 12.6 11.9 94 0.5 SE 4 7 2 4 - - 16.6
20/01:30am 12.7 11.9 11.6 93 0.6 ESE 7 11 4 6 - - 16.6
20/01:00am 12.8 11.7 11.9 94 0.5 SE 9 13 5 7 - - 16.6
20/12:30am 12.6 11.5 12.0 96 0.3 S 9 11 5 6 - - 16.6
20/12:00am 12.7 12.2 12.1 96 0.3 WSW 6 9 3 5 - - 16.6
 
Date/Time
EST
Temp
°C
App
Temp
°C
Dew
Point
Rel
Hum
%
Delta-T
°C
Wind Press
QNH
hPa
Press
MSL
hPa
Rain
since 9 am
mm
Dir
 
Spd
km/h
Gust
km/h
Spd
kts
Gust
kts
19/11:30pm 12.5 13.0 11.6 94 0.5 CALM 0 6 0 3 - - 16.6
19/11:00pm 12.9 11.8 12.1 95 0.4 ESE 9 11 5 6 - - 16.6
19/10:30pm 13.2 11.2 12.6 96 0.3 SE 15 19 8 10 - - 16.6
19/10:00pm 12.7 9.1 11.9 95 0.4 SSW 22 37 12 20 - - 15.2
19/09:45pm 14.4 8.9 12.6 89 1.0 WSW 33 44 18 24 - - 8.0
19/09:30pm 15.4 14.1 11.4 77 2.1 S 9 13 5 7 - - 0.0
19/09:00pm 15.7 14.4 11.3 75 2.4 ESE 9 11 5 6 - - 0.0
19/08:30pm 15.7 14.9 11.1 74 2.5 SE 6 7 3 4 - - 0.0
19/08:00pm 15.8 14.9 11.2 74 2.5 SSW 7 9 4 5 - - 0.0
19/07:30pm 15.5 14.8 11.5 77 2.2 SSW 6 7 3 4 - - 0.0
19/07:00pm 15.5 14.8 11.5 77 2.2 SE 6 9 3 5 - - 0.0
19/06:30pm 16.5 15.5 11.0 70 3.0 E 7 7 4 4 - - 0.0
19/06:00pm 17.2 15.4 11.0 67 3.3 E 11 13 6 7 - - 0.0

Other Formats:

Comma delimited format used in spreadsheet applications
http://www.bom.gov.au/fwo/IDN60801/IDN60801.95571.axf

JavaScript Object Notation format (JSON) in row-major order
http://www.bom.gov.au/fwo/IDN60801/IDN60801.95571.json